sensor_id;sensor_type;location;lat;lon;timestamp;P1;durP1;ratioP1;P2;durP2;ratioP2
47021;SDS011;32779;52.264;6.154;2023-04-19T00:00:27;15.07;;;8.55;;
47021;SDS011;32779;52.264;6.154;2023-04-19T00:02:53;11.38;;;8.60;;
47021;SDS011;32779;52.264;6.154;2023-04-19T00:05:19;11.85;;;8.30;;
47021;SDS011;32779;52.264;6.154;2023-04-19T00:07:47;14.27;;;8.70;;
47021;SDS011;32779;52.264;6.154;2023-04-19T00:10:13;12.02;;;8.88;;
47021;SDS011;32779;52.264;6.154;2023-04-19T00:12:39;13.30;;;8.65;;
47021;SDS011;32779;52.264;6.154;2023-04-19T00:15:04;14.10;;;9.05;;
47021;SDS011;32779;52.264;6.154;2023-04-19T00:19:57;11.10;;;8.15;;
47021;SDS011;32779;52.264;6.154;2023-04-19T00:22:22;11.45;;;8.80;;
47021;SDS011;32779;52.264;6.154;2023-04-19T00:24:48;14.40;;;9.15;;
47021;SDS011;32779;52.264;6.154;2023-04-19T00:27:13;13.95;;;8.85;;
47021;SDS011;32779;52.264;6.154;2023-04-19T00:29:39;13.23;;;9.20;;
47021;SDS011;32779;52.264;6.154;2023-04-19T00:32:05;14.95;;;9.15;;
47021;SDS011;32779;52.264;6.154;2023-04-19T00:34:30;15.10;;;9.70;;
47021;SDS011;32779;52.264;6.154;2023-04-19T00:36:56;14.00;;;9.10;;
47021;SDS011;32779;52.264;6.154;2023-04-19T00:39:22;12.05;;;8.60;;
47021;SDS011;32779;52.264;6.154;2023-04-19T00:41:48;14.00;;;9.32;;
47021;SDS011;32779;52.264;6.154;2023-04-19T00:44:13;12.95;;;9.00;;
47021;SDS011;32779;52.264;6.154;2023-04-19T00:46:39;14.38;;;9.63;;
47021;SDS011;32779;52.264;6.154;2023-04-19T00:49:05;12.00;;;9.60;;
47021;SDS011;32779;52.264;6.154;2023-04-19T00:51:31;15.23;;;9.85;;
47021;SDS011;32779;52.264;6.154;2023-04-19T00:53:57;12.55;;;9.43;;
47021;SDS011;32779;52.264;6.154;2023-04-19T00:56:22;14.05;;;10.25;;
47021;SDS011;32779;52.264;6.154;2023-04-19T00:58:52;12.63;;;9.77;;
47021;SDS011;32779;52.264;6.154;2023-04-19T01:01:18;14.55;;;9.85;;
47021;SDS011;32779;52.264;6.154;2023-04-19T01:03:44;14.82;;;9.90;;
47021;SDS011;32779;52.264;6.154;2023-04-19T01:06:10;16.00;;;9.43;;
47021;SDS011;32779;52.264;6.154;2023-04-19T01:08:36;14.70;;;9.80;;
47021;SDS011;32779;52.264;6.154;2023-04-19T01:11:01;12.88;;;9.27;;
47021;SDS011;32779;52.264;6.154;2023-04-19T01:13:27;12.43;;;9.23;;
47021;SDS011;32779;52.264;6.154;2023-04-19T01:15:53;13.73;;;10.13;;
47021;SDS011;32779;52.264;6.154;2023-04-19T01:18:19;16.02;;;9.77;;
47021;SDS011;32779;52.264;6.154;2023-04-19T01:20:48;21.33;;;9.98;;
47021;SDS011;32779;52.264;6.154;2023-04-19T01:23:14;16.75;;;8.90;;
47021;SDS011;32779;52.264;6.154;2023-04-19T01:25:39;14.68;;;9.52;;
47021;SDS011;32779;52.264;6.154;2023-04-19T01:28:05;17.15;;;9.75;;
47021;SDS011;32779;52.264;6.154;2023-04-19T01:30:31;12.23;;;9.27;;
47021;SDS011;32779;52.264;6.154;2023-04-19T01:32:56;13.25;;;9.80;;
47021;SDS011;32779;52.264;6.154;2023-04-19T01:35:22;14.65;;;9.77;;
47021;SDS011;32779;52.264;6.154;2023-04-19T01:37:48;13.85;;;9.70;;
47021;SDS011;32779;52.264;6.154;2023-04-19T01:40:14;12.10;;;9.38;;
47021;SDS011;32779;52.264;6.154;2023-04-19T01:42:40;19.17;;;9.93;;
47021;SDS011;32779;52.264;6.154;2023-04-19T01:45:09;14.90;;;10.23;;
47021;SDS011;32779;52.264;6.154;2023-04-19T01:47:35;16.90;;;9.80;;
47021;SDS011;32779;52.264;6.154;2023-04-19T01:50:01;18.95;;;9.80;;
47021;SDS011;32779;52.264;6.154;2023-04-19T01:52:26;13.27;;;9.55;;
47021;SDS011;32779;52.264;6.154;2023-04-19T01:54:52;11.77;;;9.00;;
47021;SDS011;32779;52.264;6.154;2023-04-19T01:57:17;17.80;;;9.00;;
47021;SDS011;32779;52.264;6.154;2023-04-19T01:59:43;13.30;;;8.80;;
47021;SDS011;32779;52.264;6.154;2023-04-19T02:02:09;12.32;;;8.20;;
47021;SDS011;32779;52.264;6.154;2023-04-19T02:04:34;12.95;;;8.38;;
47021;SDS011;32779;52.264;6.154;2023-04-19T02:07:01;11.63;;;8.60;;
47021;SDS011;32779;52.264;6.154;2023-04-19T02:09:26;13.13;;;8.85;;
47021;SDS011;32779;52.264;6.154;2023-04-19T02:11:52;13.13;;;8.32;;
47021;SDS011;32779;52.264;6.154;2023-04-19T02:14:17;11.38;;;8.50;;
47021;SDS011;32779;52.264;6.154;2023-04-19T02:16:43;13.90;;;8.60;;
47021;SDS011;32779;52.264;6.154;2023-04-19T02:19:09;11.98;;;8.25;;
47021;SDS011;32779;52.264;6.154;2023-04-19T02:21:34;12.88;;;8.10;;
47021;SDS011;32779;52.264;6.154;2023-04-19T02:24:00;11.93;;;8.23;;
47021;SDS011;32779;52.264;6.154;2023-04-19T02:26:25;14.13;;;8.45;;
47021;SDS011;32779;52.264;6.154;2023-04-19T02:28:51;12.55;;;8.13;;
47021;SDS011;32779;52.264;6.154;2023-04-19T02:31:17;11.60;;;7.80;;
47021;SDS011;32779;52.264;6.154;2023-04-19T02:33:43;12.70;;;8.65;;
47021;SDS011;32779;52.264;6.154;2023-04-19T02:36:10;11.82;;;7.90;;
47021;SDS011;32779;52.264;6.154;2023-04-19T02:38:36;13.45;;;8.25;;
47021;SDS011;32779;52.264;6.154;2023-04-19T02:41:01;12.15;;;7.93;;
47021;SDS011;32779;52.264;6.154;2023-04-19T02:43:28;11.82;;;7.97;;
47021;SDS011;32779;52.264;6.154;2023-04-19T02:45:54;12.13;;;7.78;;
47021;SDS011;32779;52.264;6.154;2023-04-19T02:48:20;12.15;;;8.07;;
47021;SDS011;32779;52.264;6.154;2023-04-19T02:50:45;11.40;;;8.18;;
47021;SDS011;32779;52.264;6.154;2023-04-19T02:53:11;11.75;;;7.75;;
47021;SDS011;32779;52.264;6.154;2023-04-19T02:55:37;13.25;;;8.30;;
47021;SDS011;32779;52.264;6.154;2023-04-19T02:58:02;12.68;;;8.32;;
47021;SDS011;32779;52.264;6.154;2023-04-19T03:00:28;11.57;;;8.18;;
47021;SDS011;32779;52.264;6.154;2023-04-19T03:02:54;11.55;;;8.32;;
47021;SDS011;32779;52.264;6.154;2023-04-19T03:07:46;12.93;;;8.27;;
47021;SDS011;32779;52.264;6.154;2023-04-19T03:10:11;15.88;;;8.02;;
47021;SDS011;32779;52.264;6.154;2023-04-19T03:12:37;13.32;;;8.40;;
47021;SDS011;32779;52.264;6.154;2023-04-19T03:15:02;18.08;;;8.88;;
47021;SDS011;32779;52.264;6.154;2023-04-19T03:17:28;19.17;;;8.63;;
47021;SDS011;32779;52.264;6.154;2023-04-19T03:19:54;12.40;;;8.05;;
47021;SDS011;32779;52.264;6.154;2023-04-19T03:22:20;11.30;;;8.00;;
47021;SDS011;32779;52.264;6.154;2023-04-19T03:24:46;16.63;;;8.65;;
47021;SDS011;32779;52.264;6.154;2023-04-19T03:27:11;14.15;;;9.25;;
47021;SDS011;32779;52.264;6.154;2023-04-19T03:29:37;13.50;;;8.25;;
47021;SDS011;32779;52.264;6.154;2023-04-19T03:32:02;12.85;;;7.78;;
47021;SDS011;32779;52.264;6.154;2023-04-19T03:34:28;15.65;;;8.07;;
47021;SDS011;32779;52.264;6.154;2023-04-19T03:36:54;9.52;;;6.90;;
47021;SDS011;32779;52.264;6.154;2023-04-19T03:39:19;13.30;;;7.68;;
47021;SDS011;32779;52.264;6.154;2023-04-19T03:41:45;11.77;;;7.65;;
47021;SDS011;32779;52.264;6.154;2023-04-19T03:44:11;14.02;;;7.90;;
47021;SDS011;32779;52.264;6.154;2023-04-19T03:46:36;13.10;;;7.63;;
47021;SDS011;32779;52.264;6.154;2023-04-19T03:49:02;12.05;;;7.97;;
47021;SDS011;32779;52.264;6.154;2023-04-19T03:51:27;10.25;;;7.45;;
47021;SDS011;32779;52.264;6.154;2023-04-19T03:53:53;10.45;;;6.65;;
47021;SDS011;32779;52.264;6.154;2023-04-19T03:56:18;11.15;;;7.15;;
47021;SDS011;32779;52.264;6.154;2023-04-19T03:58:44;12.70;;;6.80;;
47021;SDS011;32779;52.264;6.154;2023-04-19T04:03:45;10.48;;;6.82;;
47021;SDS011;32779;52.264;6.154;2023-04-19T04:06:11;8.73;;;6.22;;
47021;SDS011;32779;52.264;6.154;2023-04-19T04:08:37;8.40;;;6.28;;
47021;SDS011;32779;52.264;6.154;2023-04-19T04:11:03;10.25;;;5.97;;
47021;SDS011;32779;52.264;6.154;2023-04-19T04:13:28;8.93;;;6.20;;
47021;SDS011;32779;52.264;6.154;2023-04-19T04:15:54;8.98;;;5.97;;
47021;SDS011;32779;52.264;6.154;2023-04-19T04:18:19;7.20;;;5.45;;
47021;SDS011;32779;52.264;6.154;2023-04-19T04:20:45;7.05;;;5.35;;
47021;SDS011;32779;52.264;6.154;2023-04-19T04:25:38;8.15;;;5.80;;
47021;SDS011;32779;52.264;6.154;2023-04-19T04:28:04;12.35;;;5.90;;
47021;SDS011;32779;52.264;6.154;2023-04-19T04:30:30;7.95;;;5.80;;
47021;SDS011;32779;52.264;6.154;2023-04-19T04:35:25;11.35;;;5.28;;
47021;SDS011;32779;52.264;6.154;2023-04-19T04:37:51;8.88;;;6.05;;
47021;SDS011;32779;52.264;6.154;2023-04-19T04:40:20;10.93;;;5.32;;
47021;SDS011;32779;52.264;6.154;2023-04-19T04:42:46;6.82;;;4.68;;
47021;SDS011;32779;52.264;6.154;2023-04-19T04:45:12;8.75;;;5.72;;
47021;SDS011;32779;52.264;6.154;2023-04-19T04:47:37;6.90;;;5.00;;
47021;SDS011;32779;52.264;6.154;2023-04-19T04:50:03;10.48;;;5.13;;
47021;SDS011;32779;52.264;6.154;2023-04-19T04:52:29;8.32;;;5.05;;
47021;SDS011;32779;52.264;6.154;2023-04-19T04:54:55;6.47;;;4.82;;
47021;SDS011;32779;52.264;6.154;2023-04-19T04:57:21;7.13;;;4.65;;
47021;SDS011;32779;52.264;6.154;2023-04-19T04:59:46;6.90;;;4.28;;
47021;SDS011;32779;52.264;6.154;2023-04-19T05:02:15;8.38;;;4.47;;
47021;SDS011;32779;52.264;6.154;2023-04-19T05:04:41;8.63;;;4.90;;
47021;SDS011;32779;52.264;6.154;2023-04-19T05:07:06;11.23;;;5.07;;
47021;SDS011;32779;52.264;6.154;2023-04-19T05:09:32;8.23;;;4.25;;
47021;SDS011;32779;52.264;6.154;2023-04-19T05:11:58;8.90;;;4.68;;
47021;SDS011;32779;52.264;6.154;2023-04-19T05:14:23;9.55;;;4.70;;
47021;SDS011;32779;52.264;6.154;2023-04-19T05:16:49;5.68;;;3.97;;
47021;SDS011;32779;52.264;6.154;2023-04-19T05:19:14;8.10;;;3.88;;
47021;SDS011;32779;52.264;6.154;2023-04-19T05:21:40;11.85;;;4.28;;
47021;SDS011;32779;52.264;6.154;2023-04-19T05:24:06;8.10;;;3.90;;
47021;SDS011;32779;52.264;6.154;2023-04-19T05:26:33;5.43;;;3.38;;
47021;SDS011;32779;52.264;6.154;2023-04-19T05:28:59;6.30;;;4.03;;
47021;SDS011;32779;52.264;6.154;2023-04-19T05:31:25;6.07;;;3.63;;
47021;SDS011;32779;52.264;6.154;2023-04-19T05:33:50;10.07;;;3.92;;
47021;SDS011;32779;52.264;6.154;2023-04-19T05:36:16;8.25;;;3.50;;
47021;SDS011;32779;52.264;6.154;2023-04-19T05:38:42;7.28;;;4.00;;
47021;SDS011;32779;52.264;6.154;2023-04-19T05:41:07;6.90;;;3.45;;
47021;SDS011;32779;52.264;6.154;2023-04-19T05:43:33;6.25;;;3.38;;
47021;SDS011;32779;52.264;6.154;2023-04-19T05:45:58;7.10;;;3.67;;
47021;SDS011;32779;52.264;6.154;2023-04-19T05:48:24;8.52;;;3.38;;
47021;SDS011;32779;52.264;6.154;2023-04-19T05:50:50;6.22;;;3.13;;
47021;SDS011;32779;52.264;6.154;2023-04-19T05:53:18;5.80;;;3.25;;
47021;SDS011;32779;52.264;6.154;2023-04-19T05:55:43;6.53;;;3.50;;
47021;SDS011;32779;52.264;6.154;2023-04-19T05:58:11;4.95;;;2.90;;
47021;SDS011;32779;52.264;6.154;2023-04-19T06:00:37;5.88;;;3.13;;
47021;SDS011;32779;52.264;6.154;2023-04-19T06:03:03;5.07;;;3.20;;
47021;SDS011;32779;52.264;6.154;2023-04-19T06:05:28;7.15;;;3.13;;
47021;SDS011;32779;52.264;6.154;2023-04-19T06:07:54;4.07;;;2.60;;
47021;SDS011;32779;52.264;6.154;2023-04-19T06:10:20;6.05;;;2.97;;
47021;SDS011;32779;52.264;6.154;2023-04-19T06:12:47;12.10;;;2.85;;
47021;SDS011;32779;52.264;6.154;2023-04-19T06:15:12;6.43;;;2.50;;
47021;SDS011;32779;52.264;6.154;2023-04-19T06:17:38;7.18;;;3.60;;
47021;SDS011;32779;52.264;6.154;2023-04-19T06:20:04;7.93;;;2.75;;
47021;SDS011;32779;52.264;6.154;2023-04-19T06:22:32;6.72;;;2.83;;
47021;SDS011;32779;52.264;6.154;2023-04-19T06:24:58;5.10;;;2.58;;
47021;SDS011;32779;52.264;6.154;2023-04-19T06:27:24;5.38;;;2.90;;
47021;SDS011;32779;52.264;6.154;2023-04-19T06:29:50;6.60;;;2.90;;
47021;SDS011;32779;52.264;6.154;2023-04-19T06:32:16;4.88;;;2.80;;
47021;SDS011;32779;52.264;6.154;2023-04-19T06:34:41;7.30;;;2.70;;
47021;SDS011;32779;52.264;6.154;2023-04-19T06:37:07;7.40;;;2.63;;
47021;SDS011;32779;52.264;6.154;2023-04-19T06:39:33;7.22;;;2.45;;
47021;SDS011;32779;52.264;6.154;2023-04-19T06:41:59;4.60;;;2.90;;
47021;SDS011;32779;52.264;6.154;2023-04-19T06:44:26;7.35;;;2.83;;
47021;SDS011;32779;52.264;6.154;2023-04-19T06:46:52;4.32;;;2.38;;
47021;SDS011;32779;52.264;6.154;2023-04-19T06:49:17;13.65;;;3.03;;
47021;SDS011;32779;52.264;6.154;2023-04-19T06:51:43;6.32;;;2.60;;
47021;SDS011;32779;52.264;6.154;2023-04-19T06:56:38;3.53;;;2.33;;
47021;SDS011;32779;52.264;6.154;2023-04-19T06:59:09;3.63;;;2.45;;
47021;SDS011;32779;52.264;6.154;2023-04-19T07:01:36;3.72;;;2.28;;
47021;SDS011;32779;52.264;6.154;2023-04-19T07:04:02;3.92;;;2.22;;
47021;SDS011;32779;52.264;6.154;2023-04-19T07:06:28;4.72;;;2.28;;
47021;SDS011;32779;52.264;6.154;2023-04-19T07:08:53;4.15;;;2.42;;
47021;SDS011;32779;52.264;6.154;2023-04-19T07:11:19;7.13;;;2.22;;
47021;SDS011;32779;52.264;6.154;2023-04-19T07:13:44;4.07;;;2.35;;
47021;SDS011;32779;52.264;6.154;2023-04-19T07:16:10;3.70;;;1.88;;
47021;SDS011;32779;52.264;6.154;2023-04-19T07:18:37;8.23;;;1.92;;
47021;SDS011;32779;52.264;6.154;2023-04-19T07:21:02;7.80;;;2.22;;
47021;SDS011;32779;52.264;6.154;2023-04-19T07:23:28;1.95;;;1.63;;
47021;SDS011;32779;52.264;6.154;2023-04-19T07:25:54;5.50;;;1.75;;
47021;SDS011;32779;52.264;6.154;2023-04-19T07:28:20;4.25;;;1.70;;
47021;SDS011;32779;52.264;6.154;2023-04-19T07:30:45;4.70;;;1.77;;
47021;SDS011;32779;52.264;6.154;2023-04-19T07:33:11;6.70;;;1.65;;
47021;SDS011;32779;52.264;6.154;2023-04-19T07:35:40;6.20;;;1.92;;
47021;SDS011;32779;52.264;6.154;2023-04-19T07:38:05;2.97;;;1.60;;
47021;SDS011;32779;52.264;6.154;2023-04-19T07:40:31;9.88;;;2.25;;
47021;SDS011;32779;52.264;6.154;2023-04-19T07:42:56;6.03;;;2.17;;
47021;SDS011;32779;52.264;6.154;2023-04-19T07:45:22;2.97;;;1.30;;
47021;SDS011;32779;52.264;6.154;2023-04-19T07:47:48;3.63;;;1.42;;
47021;SDS011;32779;52.264;6.154;2023-04-19T07:50:13;3.58;;;1.58;;
47021;SDS011;32779;52.264;6.154;2023-04-19T07:52:39;5.75;;;1.63;;
47021;SDS011;32779;52.264;6.154;2023-04-19T07:55:05;3.47;;;1.42;;
47021;SDS011;32779;52.264;6.154;2023-04-19T07:59:58;4.55;;;1.42;;
47021;SDS011;32779;52.264;6.154;2023-04-19T08:02:25;4.97;;;1.70;;
47021;SDS011;32779;52.264;6.154;2023-04-19T08:04:51;4.00;;;1.60;;
47021;SDS011;32779;52.264;6.154;2023-04-19T08:07:17;5.93;;;1.90;;
47021;SDS011;32779;52.264;6.154;2023-04-19T08:09:43;2.97;;;1.80;;
47021;SDS011;32779;52.264;6.154;2023-04-19T08:12:08;3.08;;;1.83;;
47021;SDS011;32779;52.264;6.154;2023-04-19T08:14:34;5.55;;;1.90;;
47021;SDS011;32779;52.264;6.154;2023-04-19T08:17:00;4.05;;;1.83;;
47021;SDS011;32779;52.264;6.154;2023-04-19T08:19:25;4.68;;;1.50;;
47021;SDS011;32779;52.264;6.154;2023-04-19T08:21:51;3.15;;;1.60;;
47021;SDS011;32779;52.264;6.154;2023-04-19T08:24:16;4.15;;;1.55;;
47021;SDS011;32779;52.264;6.154;2023-04-19T08:26:42;3.78;;;1.80;;
47021;SDS011;32779;52.264;6.154;2023-04-19T08:29:07;2.33;;;1.40;;
47021;SDS011;32779;52.264;6.154;2023-04-19T08:31:33;2.95;;;1.45;;
47021;SDS011;32779;52.264;6.154;2023-04-19T08:33:59;1.95;;;1.20;;
47021;SDS011;32779;52.264;6.154;2023-04-19T08:36:24;5.35;;;1.60;;
47021;SDS011;32779;52.264;6.154;2023-04-19T08:38:51;3.70;;;1.45;;
47021;SDS011;32779;52.264;6.154;2023-04-19T08:41:17;3.42;;;1.80;;
47021;SDS011;32779;52.264;6.154;2023-04-19T08:46:09;1.83;;;1.42;;
47021;SDS011;32779;52.264;6.154;2023-04-19T08:48:36;5.53;;;1.60;;
47021;SDS011;32779;52.264;6.154;2023-04-19T08:51:02;2.15;;;1.40;;
47021;SDS011;32779;52.264;6.154;2023-04-19T08:53:28;4.03;;;1.60;;
47021;SDS011;32779;52.264;6.154;2023-04-19T08:55:54;3.92;;;1.50;;
47021;SDS011;32779;52.264;6.154;2023-04-19T08:58:23;5.55;;;1.45;;
47021;SDS011;32779;52.264;6.154;2023-04-19T09:00:50;3.20;;;1.30;;
47021;SDS011;32779;52.264;6.154;2023-04-19T09:03:15;5.45;;;1.60;;
47021;SDS011;32779;52.264;6.154;2023-04-19T09:05:41;3.55;;;1.70;;
47021;SDS011;32779;52.264;6.154;2023-04-19T09:08:25;2.03;;;1.42;;
47021;SDS011;32779;52.264;6.154;2023-04-19T09:10:56;3.75;;;1.38;;
47021;SDS011;32779;52.264;6.154;2023-04-19T09:13:23;2.15;;;1.40;;
47021;SDS011;32779;52.264;6.154;2023-04-19T09:15:49;5.38;;;1.60;;
47021;SDS011;32779;52.264;6.154;2023-04-19T09:18:17;4.13;;;1.50;;
47021;SDS011;32779;52.264;6.154;2023-04-19T09:23:10;3.22;;;1.20;;
47021;SDS011;32779;52.264;6.154;2023-04-19T09:25:41;3.38;;;1.58;;
47021;SDS011;32779;52.264;6.154;2023-04-19T09:28:25;6.13;;;2.00;;
47021;SDS011;32779;52.264;6.154;2023-04-19T09:30:55;2.33;;;1.48;;
47021;SDS011;32779;52.264;6.154;2023-04-19T09:33:34;3.40;;;1.48;;
47021;SDS011;32779;52.264;6.154;2023-04-19T09:36:03;3.05;;;1.38;;
47021;SDS011;32779;52.264;6.154;2023-04-19T09:38:39;5.20;;;1.30;;
47021;SDS011;32779;52.264;6.154;2023-04-19T09:41:11;2.67;;;1.50;;
47021;SDS011;32779;52.264;6.154;2023-04-19T09:43:37;3.78;;;1.50;;
47021;SDS011;32779;52.264;6.154;2023-04-19T09:46:02;3.45;;;1.30;;
47021;SDS011;32779;52.264;6.154;2023-04-19T09:48:28;3.88;;;1.40;;
47021;SDS011;32779;52.264;6.154;2023-04-19T09:50:55;4.80;;;1.45;;
47021;SDS011;32779;52.264;6.154;2023-04-19T09:53:27;3.13;;;1.40;;
47021;SDS011;32779;52.264;6.154;2023-04-19T09:55:54;2.15;;;1.35;;
47021;SDS011;32779;52.264;6.154;2023-04-19T09:58:20;4.15;;;1.50;;
47021;SDS011;32779;52.264;6.154;2023-04-19T10:00:46;2.08;;;1.60;;
47021;SDS011;32779;52.264;6.154;2023-04-19T10:03:16;5.78;;;1.35;;
47021;SDS011;32779;52.264;6.154;2023-04-19T10:05:43;1.92;;;1.40;;
47021;SDS011;32779;52.264;6.154;2023-04-19T10:08:10;5.80;;;1.65;;
47021;SDS011;32779;52.264;6.154;2023-04-19T10:10:40;2.53;;;1.42;;
47021;SDS011;32779;52.264;6.154;2023-04-19T10:13:12;4.03;;;1.63;;
47021;SDS011;32779;52.264;6.154;2023-04-19T10:15:43;2.80;;;1.77;;
47021;SDS011;32779;52.264;6.154;2023-04-19T10:18:09;4.40;;;1.67;;
47021;SDS011;32779;52.264;6.154;2023-04-19T10:20:41;3.80;;;2.08;;
47021;SDS011;32779;52.264;6.154;2023-04-19T10:23:17;9.93;;;1.83;;
47021;SDS011;32779;52.264;6.154;2023-04-19T10:25:45;5.18;;;1.88;;
47021;SDS011;32779;52.264;6.154;2023-04-19T10:28:11;5.20;;;1.80;;
47021;SDS011;32779;52.264;6.154;2023-04-19T10:33:23;5.72;;;1.90;;
47021;SDS011;32779;52.264;6.154;2023-04-19T10:35:49;3.17;;;1.67;;
47021;SDS011;32779;52.264;6.154;2023-04-19T10:38:14;4.25;;;1.50;;
47021;SDS011;32779;52.264;6.154;2023-04-19T10:43:15;3.95;;;2.00;;
47021;SDS011;32779;52.264;6.154;2023-04-19T10:45:42;2.72;;;1.50;;
47021;SDS011;32779;52.264;6.154;2023-04-19T10:51:02;3.85;;;1.58;;
47021;SDS011;32779;52.264;6.154;2023-04-19T11:01:31;2.67;;;2.05;;
47021;SDS011;32779;52.264;6.154;2023-04-19T11:04:18;8.13;;;1.73;;
47021;SDS011;32779;52.264;6.154;2023-04-19T11:12:02;4.22;;;1.65;;
47021;SDS011;32779;52.264;6.154;2023-04-19T11:14:29;2.90;;;1.70;;
47021;SDS011;32779;52.264;6.154;2023-04-19T11:16:57;3.28;;;1.70;;
47021;SDS011;32779;52.264;6.154;2023-04-19T11:19:23;2.55;;;1.67;;
47021;SDS011;32779;52.264;6.154;2023-04-19T11:21:48;8.00;;;2.35;;
47021;SDS011;32779;52.264;6.154;2023-04-19T11:24:14;6.78;;;1.75;;
47021;SDS011;32779;52.264;6.154;2023-04-19T11:26:42;5.88;;;2.10;;
47021;SDS011;32779;52.264;6.154;2023-04-19T11:29:12;2.60;;;1.73;;
47021;SDS011;32779;52.264;6.154;2023-04-19T11:31:38;2.58;;;2.30;;
47021;SDS011;32779;52.264;6.154;2023-04-19T11:34:04;2.70;;;1.70;;
47021;SDS011;32779;52.264;6.154;2023-04-19T11:36:30;2.55;;;1.67;;
47021;SDS011;32779;52.264;6.154;2023-04-19T11:38:56;6.10;;;2.25;;
47021;SDS011;32779;52.264;6.154;2023-04-19T11:41:22;6.18;;;1.83;;
47021;SDS011;32779;52.264;6.154;2023-04-19T11:43:48;16.88;;;2.25;;
47021;SDS011;32779;52.264;6.154;2023-04-19T11:46:13;4.10;;;1.75;;
47021;SDS011;32779;52.264;6.154;2023-04-19T11:48:49;5.30;;;2.05;;
47021;SDS011;32779;52.264;6.154;2023-04-19T11:51:16;5.72;;;1.95;;
47021;SDS011;32779;52.264;6.154;2023-04-19T11:53:42;4.85;;;2.40;;
47021;SDS011;32779;52.264;6.154;2023-04-19T11:56:08;4.28;;;2.05;;
47021;SDS011;32779;52.264;6.154;2023-04-19T12:01:08;6.22;;;2.45;;
47021;SDS011;32779;52.264;6.154;2023-04-19T12:03:58;3.35;;;2.28;;
47021;SDS011;32779;52.264;6.154;2023-04-19T12:06:26;6.20;;;2.22;;
47021;SDS011;32779;52.264;6.154;2023-04-19T12:08:56;5.60;;;2.15;;
47021;SDS011;32779;52.264;6.154;2023-04-19T12:11:25;4.07;;;2.15;;
47021;SDS011;32779;52.264;6.154;2023-04-19T12:14:16;5.15;;;2.30;;
47021;SDS011;32779;52.264;6.154;2023-04-19T12:16:45;5.28;;;1.98;;
47021;SDS011;32779;52.264;6.154;2023-04-19T12:19:11;4.75;;;1.70;;
47021;SDS011;32779;52.264;6.154;2023-04-19T12:21:44;3.42;;;2.15;;
47021;SDS011;32779;52.264;6.154;2023-04-19T12:24:13;4.10;;;2.03;;
47021;SDS011;32779;52.264;6.154;2023-04-19T12:26:55;2.17;;;1.70;;
47021;SDS011;32779;52.264;6.154;2023-04-19T12:29:21;4.05;;;1.90;;
47021;SDS011;32779;52.264;6.154;2023-04-19T12:31:47;3.90;;;1.95;;
47021;SDS011;32779;52.264;6.154;2023-04-19T12:34:13;2.38;;;1.83;;
47021;SDS011;32779;52.264;6.154;2023-04-19T12:39:04;3.35;;;1.20;;
47021;SDS011;32779;52.264;6.154;2023-04-19T12:41:29;5.85;;;1.67;;
47021;SDS011;32779;52.264;6.154;2023-04-19T12:43:55;7.57;;;1.55;;
47021;SDS011;32779;52.264;6.154;2023-04-19T12:46:20;4.55;;;1.10;;
47021;SDS011;32779;52.264;6.154;2023-04-19T12:48:46;5.45;;;1.20;;
47021;SDS011;32779;52.264;6.154;2023-04-19T12:51:12;4.78;;;1.50;;
47021;SDS011;32779;52.264;6.154;2023-04-19T12:53:37;4.82;;;1.50;;
47021;SDS011;32779;52.264;6.154;2023-04-19T12:56:04;3.55;;;1.63;;
47021;SDS011;32779;52.264;6.154;2023-04-19T12:58:31;5.78;;;1.58;;
47021;SDS011;32779;52.264;6.154;2023-04-19T13:00:57;3.90;;;1.63;;
47021;SDS011;32779;52.264;6.154;2023-04-19T13:03:22;3.20;;;1.25;;
47021;SDS011;32779;52.264;6.154;2023-04-19T13:08:14;2.30;;;1.42;;
47021;SDS011;32779;52.264;6.154;2023-04-19T13:10:40;3.47;;;1.52;;
47021;SDS011;32779;52.264;6.154;2023-04-19T13:13:06;4.50;;;1.20;;
47021;SDS011;32779;52.264;6.154;2023-04-19T13:15:32;3.90;;;1.58;;
47021;SDS011;32779;52.264;6.154;2023-04-19T13:20:22;3.15;;;1.23;;
47021;SDS011;32779;52.264;6.154;2023-04-19T13:22:48;4.82;;;1.45;;
47021;SDS011;32779;52.264;6.154;2023-04-19T13:25:14;6.25;;;2.08;;
47021;SDS011;32779;52.264;6.154;2023-04-19T13:27:39;5.90;;;1.50;;
47021;SDS011;32779;52.264;6.154;2023-04-19T13:30:05;2.60;;;1.50;;
47021;SDS011;32779;52.264;6.154;2023-04-19T13:32:31;6.25;;;1.52;;
47021;SDS011;32779;52.264;6.154;2023-04-19T13:34:57;8.02;;;2.15;;
47021;SDS011;32779;52.264;6.154;2023-04-19T13:39:48;6.18;;;1.67;;
47021;SDS011;32779;52.264;6.154;2023-04-19T13:42:13;3.83;;;2.10;;
47021;SDS011;32779;52.264;6.154;2023-04-19T13:44:39;4.07;;;2.00;;
47021;SDS011;32779;52.264;6.154;2023-04-19T13:47:05;8.85;;;2.05;;
47021;SDS011;32779;52.264;6.154;2023-04-19T13:51:56;2.55;;;1.83;;
47021;SDS011;32779;52.264;6.154;2023-04-19T13:54:22;4.15;;;1.70;;
47021;SDS011;32779;52.264;6.154;2023-04-19T13:56:47;5.43;;;2.00;;
47021;SDS011;32779;52.264;6.154;2023-04-19T13:59:13;2.95;;;1.95;;
47021;SDS011;32779;52.264;6.154;2023-04-19T14:01:39;3.65;;;2.08;;
47021;SDS011;32779;52.264;6.154;2023-04-19T14:04:05;2.67;;;2.33;;
47021;SDS011;32779;52.264;6.154;2023-04-19T14:06:31;4.20;;;1.95;;
47021;SDS011;32779;52.264;6.154;2023-04-19T14:08:57;3.72;;;2.13;;
47021;SDS011;32779;52.264;6.154;2023-04-19T14:11:23;5.53;;;1.83;;
47021;SDS011;32779;52.264;6.154;2023-04-19T14:13:49;3.55;;;2.05;;
47021;SDS011;32779;52.264;6.154;2023-04-19T14:16:16;2.60;;;2.00;;
47021;SDS011;32779;52.264;6.154;2023-04-19T14:18:41;2.38;;;1.70;;
47021;SDS011;32779;52.264;6.154;2023-04-19T14:21:07;3.85;;;2.15;;
47021;SDS011;32779;52.264;6.154;2023-04-19T14:23:33;6.15;;;2.03;;
47021;SDS011;32779;52.264;6.154;2023-04-19T14:25:59;7.05;;;2.00;;
47021;SDS011;32779;52.264;6.154;2023-04-19T14:30:50;6.60;;;2.13;;
47021;SDS011;32779;52.264;6.154;2023-04-19T14:33:15;3.60;;;1.80;;
47021;SDS011;32779;52.264;6.154;2023-04-19T14:35:41;4.90;;;2.10;;
47021;SDS011;32779;52.264;6.154;2023-04-19T14:38:07;3.58;;;1.88;;
47021;SDS011;32779;52.264;6.154;2023-04-19T14:42:58;2.90;;;2.17;;
47021;SDS011;32779;52.264;6.154;2023-04-19T14:47:51;7.38;;;2.55;;
47021;SDS011;32779;52.264;6.154;2023-04-19T14:50:17;5.38;;;2.22;;
47021;SDS011;32779;52.264;6.154;2023-04-19T14:52:42;5.75;;;2.50;;
47021;SDS011;32779;52.264;6.154;2023-04-19T14:55:08;5.50;;;2.38;;
47021;SDS011;32779;52.264;6.154;2023-04-19T14:57:35;3.97;;;2.30;;
47021;SDS011;32779;52.264;6.154;2023-04-19T15:00:00;3.08;;;2.45;;
47021;SDS011;32779;52.264;6.154;2023-04-19T15:02:26;9.35;;;2.65;;
47021;SDS011;32779;52.264;6.154;2023-04-19T15:04:52;4.28;;;2.65;;
47021;SDS011;32779;52.264;6.154;2023-04-19T15:07:18;8.45;;;2.60;;
47021;SDS011;32779;52.264;6.154;2023-04-19T15:09:43;4.28;;;2.50;;
47021;SDS011;32779;52.264;6.154;2023-04-19T15:12:09;6.50;;;2.33;;
47021;SDS011;32779;52.264;6.154;2023-04-19T15:14:35;6.32;;;2.70;;
47021;SDS011;32779;52.264;6.154;2023-04-19T15:17:02;5.22;;;2.75;;
47021;SDS011;32779;52.264;6.154;2023-04-19T15:19:28;5.78;;;2.70;;
47021;SDS011;32779;52.264;6.154;2023-04-19T15:21:54;2.60;;;2.30;;
47021;SDS011;32779;52.264;6.154;2023-04-19T15:24:20;4.28;;;2.45;;
47021;SDS011;32779;52.264;6.154;2023-04-19T15:26:46;4.72;;;2.33;;
47021;SDS011;32779;52.264;6.154;2023-04-19T15:29:11;4.38;;;2.70;;
47021;SDS011;32779;52.264;6.154;2023-04-19T15:34:03;5.15;;;2.50;;
47021;SDS011;32779;52.264;6.154;2023-04-19T15:38:55;4.93;;;2.42;;
47021;SDS011;32779;52.264;6.154;2023-04-19T15:41:21;6.35;;;2.85;;
47021;SDS011;32779;52.264;6.154;2023-04-19T15:43:47;3.78;;;2.33;;
47021;SDS011;32779;52.264;6.154;2023-04-19T15:46:12;4.22;;;2.00;;
47021;SDS011;32779;52.264;6.154;2023-04-19T15:48:38;4.78;;;2.10;;